CYYF

Penticton Airport

Penticton, , Canada
METAR CYYF 142300Z 18017G22KT 15SM FEW020 BKN060 OVC220 02/M02 A3026 RMK SC2SC3CI3 SLP263
Observed Flight Rules
Nov-14 @ 23:00 UTC (59 minutes ago) Visual Flight Rules
Wind Visibility Clouds
180° at 17 knots
 Gusting to 22 knots
15 miles
  • Few at 2,000' AGL
  • Broken at 6,000' AGL
  • Overcast at 22,000' AGL
Temperatures Readings
Current 2°C / 36°F
Dewpoint -2°C / 28°F
Humidity 75%
Altimeter 30.26" Hg
Pressure 1026.3 hPa
Elevation 344
METAR CYYF 142300Z 18017G22KT 15SM FEW020 BKN060 OVC220 02/M02 A3026 RMK SC2SC3CI3 SLP263
Observed Flight Rules
Nov-14 @ 23:00 UTC
(59 minutes ago)
VFR
Wind Visibility
180° at 17 knots
 Gusting to 22 knots
15 miles
Clouds
  • Few at 2,000' AGL
  • Broken at 6,000' AGL
  • Overcast at 22,000' AGL
Temperature Dewpoint
2°C / 36°F -2°C / 28°F
Humidity Altimeter Pressure
75% 30.26" Hg 1026.3 hPa